Green Meadow, Maryland
Current Conditions -  °F | °C
As of 7:20 AM on Tuesday 27 Jan 2015 (Local Time) from KCGS Reporting Station
Overcast Overcast  
Wind Chill: 23°   Ceiling: 4100
Heat Index: 30°   Visibility: 10mi
Dew Point: 27°   Wind: 8mph
Humidity: 86%   Direction: 340°NNW
Pressure: 29.79"   Gusts: NA
Location:  38.9677°N, 76.9584°W
Report Text: KCGS 271220Z AUTO 34007KT 10SM OVC041 M01/M03 A2979 RMK AO1
Loading
Personal Weather Stations






























Interactive Weather Map New forecast layout! Learn more

10-Day Weather Forecast

Advertisements
Track Severe Weather on mobile